createdAt,value
2018-10-02T00:02:16.742Z,99.90
2018-10-02T00:04:45.918Z,99.90
2018-10-02T00:07:15.118Z,99.90
2018-10-02T00:09:44.299Z,99.90
2018-10-02T00:12:18.906Z,99.90
2018-10-02T00:14:48.132Z,99.90
2018-10-02T00:17:17.346Z,99.90
2018-10-02T00:19:46.525Z,99.90
2018-10-02T00:22:15.730Z,99.90
2018-10-02T00:24:44.901Z,99.90
2018-10-02T00:27:14.125Z,99.90
2018-10-02T00:29:43.293Z,99.90
2018-10-02T00:32:12.569Z,99.90
2018-10-02T00:34:41.690Z,99.90
2018-10-02T00:37:10.899Z,99.90
2018-10-02T00:39:40.086Z,99.90
2018-10-02T00:42:09.736Z,99.90
2018-10-02T00:44:38.959Z,99.90
2018-10-02T00:47:08.187Z,99.90
2018-10-02T00:49:37.409Z,99.90
2018-10-02T00:52:06.614Z,99.90
2018-10-02T00:54:35.785Z,99.90
2018-10-02T00:57:05.150Z,99.90
2018-10-02T00:59:34.313Z,99.90
2018-10-02T01:02:03.496Z,99.90
2018-10-02T01:04:32.677Z,99.90
2018-10-02T01:07:01.905Z,99.90
2018-10-02T01:09:31.089Z,99.90
2018-10-02T01:12:00.261Z,99.90
2018-10-02T01:14:29.466Z,99.90
2018-10-02T01:16:58.704Z,99.90
2018-10-02T01:19:27.869Z,99.90
2018-10-02T01:21:57.092Z,99.90
2018-10-02T01:24:26.270Z,99.90
2018-10-02T01:26:55.501Z,99.90
2018-10-02T01:29:24.733Z,99.90
2018-10-02T01:31:53.908Z,99.90
2018-10-02T01:34:23.149Z,99.90
2018-10-02T01:36:52.329Z,99.90
2018-10-02T01:39:21.489Z,99.90
2018-10-02T01:41:50.704Z,99.90
2018-10-02T01:49:15.910Z,99.90
2018-10-02T01:51:45.107Z,99.90
2018-10-02T01:54:14.374Z,99.90
2018-10-02T01:56:43.565Z,99.90
2018-10-02T01:59:12.744Z,99.90
2018-10-02T02:01:41.964Z,99.90
2018-10-02T02:04:11.179Z,99.90
2018-10-02T02:06:40.398Z,99.90
2018-10-02T02:09:09.576Z,99.90
2018-10-02T02:11:38.778Z,99.90
2018-10-02T02:14:07.972Z,99.90
2018-10-02T02:16:37.190Z,99.90
2018-10-02T02:19:06.372Z,99.90
2018-10-02T02:21:35.586Z,99.90
2018-10-02T02:24:04.770Z,99.90
2018-10-02T02:26:33.982Z,99.90
2018-10-02T02:29:03.163Z,99.90
2018-10-02T02:31:32.341Z,99.90
2018-10-02T02:34:01.969Z,99.90
2018-10-02T02:36:31.155Z,99.90
2018-10-02T02:39:00.319Z,99.90
2018-10-02T02:41:30.654Z,99.90
2018-10-02T02:43:59.803Z,99.90
2018-10-02T02:46:28.993Z,99.90
2018-10-02T02:49:03.377Z,99.90
2018-10-02T02:51:33.644Z,99.90
2018-10-02T02:54:02.810Z,99.90
2018-10-02T02:56:32.029Z,99.90
2018-10-02T02:59:01.831Z,99.90
2018-10-02T03:01:31.144Z,99.90
2018-10-02T03:04:00.454Z,99.90
2018-10-02T03:06:29.642Z,99.90
2018-10-02T03:08:58.975Z,99.90
2018-10-02T03:11:28.166Z,99.90
2018-10-02T03:13:57.350Z,99.90
2018-10-02T03:16:26.538Z,99.90
2018-10-02T03:18:55.738Z,99.90
2018-10-02T03:21:24.933Z,99.90
2018-10-02T03:23:54.116Z,99.90
2018-10-02T03:26:23.315Z,99.90
2018-10-02T03:28:52.479Z,99.90
2018-10-02T03:31:21.645Z,99.90
2018-10-02T03:33:50.848Z,99.90
2018-10-02T03:36:20.026Z,99.90
2018-10-02T03:38:49.217Z,99.90
2018-10-02T03:41:18.381Z,99.90
2018-10-02T03:43:47.610Z,99.90
2018-10-02T03:46:16.794Z,99.90
2018-10-02T03:48:46.047Z,99.90
2018-10-02T03:51:15.270Z,99.90
2018-10-02T03:53:44.708Z,99.90
2018-10-02T03:56:13.877Z,99.90
2018-10-02T03:58:43.129Z,99.90
2018-10-02T04:01:12.301Z,99.90
2018-10-02T04:03:41.585Z,99.90
2018-10-02T04:06:10.698Z,99.90
2018-10-02T04:08:39.889Z,99.90
2018-10-02T04:11:09.078Z,99.90
2018-10-02T04:13:38.275Z,99.90
2018-10-02T04:16:07.599Z,99.90
2018-10-02T04:18:36.827Z,99.90
2018-10-02T04:21:06.040Z,99.90
2018-10-02T04:23:35.222Z,99.90
2018-10-02T04:26:04.440Z,99.90
2018-10-02T04:28:33.636Z,99.90
2018-10-02T04:31:02.828Z,99.90
2018-10-02T04:33:32.014Z,99.90
2018-10-02T04:36:01.238Z,99.90
2018-10-02T04:38:30.516Z,99.90
2018-10-02T04:40:59.682Z,99.90
2018-10-02T04:43:28.899Z,99.90
2018-10-02T04:45:58.074Z,99.90
2018-10-02T04:48:27.262Z,99.90
2018-10-02T04:50:56.446Z,99.90
2018-10-02T04:53:25.646Z,99.90
2018-10-02T04:55:54.873Z,99.90
2018-10-02T04:58:24.109Z,99.90
2018-10-02T05:00:53.392Z,99.90
2018-10-02T05:03:22.734Z,99.90
2018-10-02T05:05:52.049Z,99.90
2018-10-02T05:08:21.305Z,99.90
2018-10-02T05:10:50.453Z,99.90
2018-10-02T05:13:19.651Z,99.90
2018-10-02T05:15:48.897Z,99.90
2018-10-02T05:18:18.083Z,99.90
2018-10-02T05:20:47.284Z,99.90
2018-10-02T05:23:16.477Z,99.90
2018-10-02T05:25:45.649Z,99.90
2018-10-02T05:28:14.844Z,99.90
2018-10-02T05:30:50.883Z,99.90
2018-10-02T05:33:20.121Z,99.90
2018-10-02T05:35:49.297Z,99.90
2018-10-02T05:38:18.525Z,99.90
2018-10-02T05:40:47.717Z,99.90
2018-10-02T05:43:16.922Z,99.90
2018-10-02T05:45:46.164Z,99.90
2018-10-02T05:48:15.388Z,99.90
2018-10-02T05:50:44.583Z,99.90
2018-10-02T05:53:13.808Z,99.90
2018-10-02T05:55:42.987Z,99.90
2018-10-02T05:58:12.332Z,99.90
2018-10-02T06:00:41.498Z,99.90
2018-10-02T06:03:10.711Z,99.90
2018-10-02T06:05:39.875Z,99.90
2018-10-02T06:08:09.074Z,99.90
2018-10-02T06:10:38.371Z,99.90
2018-10-02T06:13:07.702Z,99.90
2018-10-02T06:15:37.259Z,99.90
2018-10-02T06:18:07.052Z,99.90
2018-10-02T06:20:36.195Z,99.90
2018-10-02T06:23:05.407Z,99.90
2018-10-02T06:25:34.564Z,99.90
2018-10-02T06:28:03.787Z,99.90
2018-10-02T06:30:32.954Z,99.90
2018-10-02T06:33:02.147Z,99.90
2018-10-02T06:35:31.339Z,99.90
2018-10-02T06:38:00.620Z,99.90
2018-10-02T06:40:29.888Z,99.90
2018-10-02T06:42:59.032Z,99.90
2018-10-02T06:45:28.228Z,99.90
2018-10-02T06:47:57.419Z,99.90
2018-10-02T06:50:26.634Z,99.90
2018-10-02T06:52:55.836Z,99.90
2018-10-02T06:55:25.111Z,99.90
2018-10-02T06:57:54.302Z,99.90
2018-10-02T07:00:23.539Z,99.90
2018-10-02T07:02:52.779Z,99.90
2018-10-02T07:05:21.986Z,99.50
2018-10-02T07:07:51.159Z,99.50
2018-10-02T07:10:20.396Z,98.90
2018-10-02T07:12:49.647Z,99.10
2018-10-02T07:15:18.843Z,97.80
2018-10-02T07:17:48.022Z,98.80
2018-10-02T07:20:17.239Z,98.30
2018-10-02T07:22:46.417Z,98.40
2018-10-02T07:25:15.639Z,97.70
2018-10-02T07:27:45.011Z,98.30
2018-10-02T07:30:14.063Z,98.20
2018-10-02T07:32:43.330Z,98.70
2018-10-02T07:35:12.511Z,98.80
2018-10-02T07:37:41.887Z,99.00
2018-10-02T07:40:11.077Z,99.40
2018-10-02T07:42:40.267Z,99.80
2018-10-02T07:45:09.442Z,99.30
2018-10-02T07:47:38.682Z,98.90
2018-10-02T07:50:07.850Z,99.10
2018-10-02T07:52:37.025Z,98.80
2018-10-02T07:55:06.247Z,99.00
2018-10-02T07:57:35.414Z,99.20
2018-10-02T08:00:04.875Z,99.40
2018-10-02T08:02:34.111Z,99.00
2018-10-02T08:05:03.305Z,99.10
2018-10-02T08:07:32.515Z,99.20
2018-10-02T08:10:01.742Z,99.40
2018-10-02T08:12:30.992Z,99.20
2018-10-02T08:15:00.176Z,99.20
2018-10-02T08:17:29.422Z,99.00
2018-10-02T08:19:58.647Z,98.60
2018-10-02T08:22:27.792Z,98.70
2018-10-02T08:24:57.003Z,98.30
2018-10-02T08:27:26.246Z,98.10
2018-10-02T08:29:55.477Z,98.20
2018-10-02T08:32:24.705Z,98.10
2018-10-02T08:34:53.882Z,98.20
2018-10-02T08:37:23.065Z,97.80
2018-10-02T08:39:52.273Z,97.80
2018-10-02T08:42:21.482Z,98.00
2018-10-02T08:44:50.735Z,98.00
2018-10-02T08:47:19.968Z,97.90
2018-10-02T08:49:49.178Z,97.10
2018-10-02T08:52:18.462Z,97.30
2018-10-02T08:54:47.607Z,97.60
2018-10-02T08:57:16.774Z,97.60
2018-10-02T08:59:46.229Z,97.50
2018-10-02T09:02:15.448Z,97.70
2018-10-02T09:04:44.665Z,97.50
2018-10-02T09:07:13.863Z,97.50
2018-10-02T09:09:43.199Z,97.30
2018-10-02T09:12:12.387Z,97.70
2018-10-02T09:14:41.614Z,97.40
2018-10-02T09:17:10.840Z,97.70
2018-10-02T09:19:40.046Z,97.70
2018-10-02T09:22:09.268Z,97.60
2018-10-02T09:24:38.554Z,96.90
2018-10-02T09:27:07.859Z,96.80
2018-10-02T09:29:41.174Z,96.50
2018-10-02T09:32:15.798Z,96.80
2018-10-02T09:34:50.445Z,97.10
2018-10-02T09:37:25.106Z,97.10
2018-10-02T09:39:59.631Z,97.10
2018-10-02T09:42:34.290Z,97.10
2018-10-02T09:45:03.486Z,97.00
2018-10-02T09:47:32.683Z,96.90
2018-10-02T09:50:01.904Z,97.20
2018-10-02T09:52:31.082Z,97.00
2018-10-02T09:55:00.346Z,97.20
2018-10-02T09:57:29.531Z,97.30
2018-10-02T09:59:58.745Z,97.40
2018-10-02T10:02:36.174Z,97.40
2018-10-02T10:05:05.374Z,97.80
2018-10-02T10:07:34.559Z,97.60
2018-10-02T10:10:03.780Z,97.50
2018-10-02T10:12:32.967Z,97.70
2018-10-02T10:15:02.206Z,97.70
2018-10-02T10:17:31.455Z,97.70
2018-10-02T10:20:00.679Z,98.00
2018-10-02T10:22:29.984Z,97.70
2018-10-02T10:24:59.200Z,97.40
2018-10-02T10:27:28.417Z,97.20
2018-10-02T10:29:57.639Z,97.50
2018-10-02T10:32:26.847Z,97.40
2018-10-02T10:34:56.095Z,97.30
2018-10-02T10:37:25.322Z,97.50
2018-10-02T10:39:54.645Z,97.50
2018-10-02T10:42:23.854Z,97.60
2018-10-02T10:44:53.067Z,97.80
2018-10-02T10:47:22.509Z,97.90
2018-10-02T10:49:51.827Z,97.50
2018-10-02T10:52:20.999Z,97.70
2018-10-02T10:55:07.294Z,97.70
2018-10-02T10:57:36.459Z,97.90
2018-10-02T11:00:05.831Z,98.00
2018-10-02T11:02:35.040Z,97.80
2018-10-02T11:05:04.356Z,97.90
2018-10-02T11:07:33.526Z,98.00
2018-10-02T11:10:09.579Z,98.00
2018-10-02T11:12:38.927Z,98.10
2018-10-02T11:15:08.306Z,98.30
2018-10-02T11:17:37.515Z,98.10
2018-10-02T11:20:06.787Z,98.10
2018-10-02T11:22:36.548Z,98.10
2018-10-02T11:25:05.849Z,98.40
2018-10-02T11:27:35.066Z,98.30
2018-10-02T11:30:04.695Z,98.60
2018-10-02T11:32:33.918Z,98.90
2018-10-02T11:35:03.127Z,99.20
2018-10-02T11:37:32.455Z,99.40
2018-10-02T11:40:01.716Z,99.90
2018-10-02T11:42:31.056Z,99.00
2018-10-02T11:45:00.343Z,99.60
2018-10-02T11:47:29.544Z,99.60
2018-10-02T11:49:58.811Z,99.60
2018-10-02T11:52:27.967Z,99.90
2018-10-02T11:54:57.164Z,99.40
2018-10-02T11:57:26.631Z,99.90
2018-10-02T11:59:55.811Z,99.90
2018-10-02T12:02:25.056Z,99.90
2018-10-02T12:04:54.263Z,99.90
2018-10-02T12:07:23.522Z,99.90
2018-10-02T12:09:52.714Z,99.90
2018-10-02T12:12:21.922Z,99.70
2018-10-02T12:14:51.165Z,99.60
2018-10-02T12:17:20.308Z,99.40
2018-10-02T12:19:49.683Z,99.40
2018-10-02T12:22:18.757Z,99.20
2018-10-02T12:24:48.026Z,99.20
2018-10-02T12:27:17.254Z,98.70
2018-10-02T12:29:46.498Z,98.80
2018-10-02T12:32:15.711Z,98.70
2018-10-02T12:34:44.899Z,98.50
2018-10-02T12:37:14.099Z,98.60
2018-10-02T12:39:43.379Z,98.40
2018-10-02T12:42:12.621Z,98.20
2018-10-02T12:44:41.841Z,98.20
2018-10-02T12:47:11.057Z,98.00
2018-10-02T12:49:40.293Z,98.10
2018-10-02T12:52:09.656Z,98.10
2018-10-02T12:54:38.916Z,98.00
2018-10-02T12:57:08.106Z,98.20
2018-10-02T12:59:37.289Z,98.40
2018-10-02T13:02:06.507Z,98.40
2018-10-02T13:04:35.724Z,98.30
2018-10-02T13:07:04.994Z,98.60
2018-10-02T13:09:34.152Z,98.60
2018-10-02T13:12:03.387Z,98.60
2018-10-02T13:14:32.573Z,98.90
2018-10-02T13:17:01.783Z,98.90
2018-10-02T13:19:30.958Z,99.40
2018-10-02T13:22:00.174Z,99.00
2018-10-02T13:24:29.351Z,98.70
2018-10-02T13:26:58.530Z,98.90
2018-10-02T13:29:31.760Z,99.00
2018-10-02T13:32:00.963Z,99.30
2018-10-02T13:34:30.195Z,99.70
2018-10-02T13:36:59.415Z,99.40
2018-10-02T13:39:28.698Z,99.70
2018-10-02T13:41:57.907Z,99.90
2018-10-02T13:44:27.160Z,99.70
2018-10-02T13:46:56.391Z,99.70
2018-10-02T13:49:25.608Z,99.90
2018-10-02T13:51:54.819Z,99.90
2018-10-02T13:54:24.006Z,99.90
2018-10-02T13:56:53.205Z,99.90
2018-10-02T13:59:22.417Z,99.90
2018-10-02T14:01:51.762Z,99.90
2018-10-02T14:04:21.710Z,99.90
2018-10-02T14:06:51.346Z,99.90
2018-10-02T14:09:20.598Z,99.90
2018-10-02T14:11:49.824Z,99.90
2018-10-02T14:14:19.023Z,99.90
2018-10-02T14:16:48.255Z,99.90
2018-10-02T14:19:17.447Z,99.90
2018-10-02T14:21:50.203Z,99.90
2018-10-02T14:24:19.415Z,99.90
2018-10-02T14:26:48.622Z,99.90
2018-10-02T14:29:17.815Z,99.90
2018-10-02T14:31:47.050Z,99.90
2018-10-02T14:34:16.284Z,99.90
2018-10-02T14:36:45.566Z,99.90
2018-10-02T14:39:14.748Z,99.90
2018-10-02T14:41:43.968Z,99.90
2018-10-02T14:44:13.184Z,99.90
2018-10-02T14:46:42.370Z,99.90
2018-10-02T14:49:11.545Z,99.90
2018-10-02T14:51:40.733Z,99.90
2018-10-02T14:54:09.954Z,99.90
2018-10-02T14:56:39.145Z,99.90
2018-10-02T14:59:08.352Z,99.90
2018-10-02T15:01:37.547Z,99.90
2018-10-02T15:04:06.916Z,99.90
2018-10-02T15:06:36.140Z,99.90
2018-10-02T15:09:07.091Z,99.90
2018-10-02T15:11:36.311Z,99.90
2018-10-02T15:14:05.532Z,99.90
2018-10-02T15:16:41.264Z,99.90
2018-10-02T15:19:10.479Z,99.90
2018-10-02T15:21:39.675Z,99.90
2018-10-02T15:24:08.924Z,99.90
2018-10-02T15:26:38.119Z,99.90
2018-10-02T15:29:07.326Z,99.90
2018-10-02T15:31:36.730Z,99.90
2018-10-02T15:34:06.091Z,99.90
2018-10-02T15:39:23.973Z,99.90
2018-10-02T15:41:53.689Z,99.90
2018-10-02T15:44:22.871Z,99.90
2018-10-02T15:46:52.088Z,99.90
2018-10-02T15:49:21.299Z,99.90
2018-10-02T15:51:50.472Z,99.90
2018-10-02T15:54:19.678Z,99.90
2018-10-02T15:56:48.837Z,99.90
2018-10-02T15:59:18.022Z,99.90
2018-10-02T16:01:47.223Z,99.90
2018-10-02T16:04:16.541Z,99.90
2018-10-02T16:06:45.734Z,99.90
2018-10-02T16:09:14.914Z,99.90
2018-10-02T16:11:44.229Z,99.90
2018-10-02T16:14:13.414Z,99.90
2018-10-02T16:16:42.618Z,99.90
2018-10-02T16:19:11.824Z,99.90
2018-10-02T16:21:41.024Z,99.90
2018-10-02T16:24:10.271Z,99.90
2018-10-02T16:26:39.453Z,99.90
2018-10-02T16:29:08.663Z,99.90
2018-10-02T16:31:37.843Z,99.90
2018-10-02T16:34:07.071Z,99.90
2018-10-02T16:36:36.311Z,99.90
2018-10-02T16:39:08.141Z,99.90
2018-10-02T16:41:37.354Z,99.90
2018-10-02T16:44:06.613Z,99.90
2018-10-02T16:46:35.830Z,99.90
2018-10-02T16:49:05.071Z,99.90
2018-10-02T16:51:34.658Z,99.90
2018-10-02T16:54:03.890Z,99.90
2018-10-02T16:56:33.097Z,99.90
2018-10-02T16:59:02.627Z,99.90
2018-10-02T17:01:31.993Z,99.90
2018-10-02T17:04:01.242Z,99.90
2018-10-02T17:06:30.670Z,99.90
2018-10-02T17:08:59.871Z,99.90
2018-10-02T17:11:29.059Z,99.90
2018-10-02T17:13:58.443Z,99.90
2018-10-02T17:16:28.414Z,99.90
2018-10-02T17:18:57.641Z,99.90
2018-10-02T17:21:26.872Z,99.90
2018-10-02T17:23:56.276Z,99.90
2018-10-02T17:26:25.945Z,99.90
2018-10-02T17:28:55.263Z,99.90
2018-10-02T17:31:24.354Z,99.90
2018-10-02T17:33:53.550Z,99.90
2018-10-02T17:36:22.745Z,99.90
2018-10-02T17:38:51.978Z,99.90
2018-10-02T17:41:21.188Z,99.90
2018-10-02T17:43:50.438Z,99.90
2018-10-02T17:46:19.610Z,99.90
2018-10-02T17:48:48.889Z,99.90
2018-10-02T17:51:18.035Z,99.90
2018-10-02T17:53:47.229Z,99.90
2018-10-02T17:56:16.395Z,99.90
2018-10-02T17:58:45.607Z,99.90
2018-10-02T18:01:14.781Z,99.90
2018-10-02T18:03:43.978Z,99.90
2018-10-02T18:06:13.155Z,99.90
2018-10-02T18:08:42.354Z,99.90
2018-10-02T18:11:11.542Z,99.90
2018-10-02T18:13:40.739Z,99.90
2018-10-02T18:16:09.940Z,99.90
2018-10-02T18:18:39.113Z,99.90
2018-10-02T18:21:08.363Z,99.90
2018-10-02T18:23:37.567Z,99.90
2018-10-02T18:26:06.877Z,99.90
2018-10-02T18:28:36.593Z,99.90
2018-10-02T18:31:05.806Z,99.90
2018-10-02T18:33:35.016Z,99.90
2018-10-02T18:36:04.187Z,99.90
2018-10-02T18:38:33.388Z,99.90
2018-10-02T18:41:02.585Z,99.90
2018-10-02T18:43:31.815Z,99.90
2018-10-02T18:46:01.071Z,99.90
2018-10-02T18:48:30.237Z,99.90
2018-10-02T18:50:59.431Z,99.90
2018-10-02T18:53:28.612Z,99.90
2018-10-02T18:55:57.830Z,99.90
2018-10-02T18:58:27.022Z,99.90
2018-10-02T19:00:56.220Z,99.90
2018-10-02T19:03:25.402Z,99.90
2018-10-02T19:05:54.633Z,99.90
2018-10-02T19:08:29.182Z,99.90
2018-10-02T19:11:02.535Z,99.90
2018-10-02T19:13:31.708Z,99.90
2018-10-02T19:16:06.297Z,99.90
2018-10-02T19:18:36.323Z,99.90
2018-10-02T19:21:05.703Z,99.90
2018-10-02T19:23:35.111Z,99.90
2018-10-02T19:26:06.884Z,99.90
2018-10-02T19:28:36.519Z,99.90
2018-10-02T19:31:10.980Z,99.90
2018-10-02T19:33:40.155Z,99.90
2018-10-02T19:36:09.387Z,99.90
2018-10-02T19:38:43.775Z,99.90
2018-10-02T19:41:13.128Z,99.90
2018-10-02T19:43:42.679Z,99.90
2018-10-02T19:46:17.123Z,99.90
2018-10-02T19:48:46.299Z,99.90
2018-10-02T19:51:20.916Z,99.90
2018-10-02T19:53:50.103Z,99.90
2018-10-02T19:56:19.294Z,99.90
2018-10-02T19:58:48.652Z,99.90
2018-10-02T20:01:17.867Z,99.90
2018-10-02T20:03:47.254Z,99.90
2018-10-02T20:06:16.438Z,99.90
2018-10-02T20:08:45.574Z,99.90
2018-10-02T20:11:14.760Z,99.90
2018-10-02T20:13:44.070Z,99.90
2018-10-02T20:16:13.142Z,99.90
2018-10-02T20:18:42.290Z,99.90
2018-10-02T20:21:11.469Z,99.90
2018-10-02T20:23:52.689Z,99.90
2018-10-02T20:26:21.862Z,99.90
2018-10-02T20:28:51.046Z,99.90
2018-10-02T20:31:20.279Z,99.90
2018-10-02T20:33:49.461Z,99.90
2018-10-02T20:36:18.638Z,99.90
2018-10-02T20:38:47.788Z,99.90
2018-10-02T20:41:16.956Z,99.90
2018-10-02T20:43:46.134Z,99.90
2018-10-02T20:46:15.375Z,99.90
2018-10-02T20:48:44.583Z,99.90
2018-10-02T20:51:13.815Z,99.90
2018-10-02T20:53:42.967Z,99.90
2018-10-02T20:56:12.142Z,99.90
2018-10-02T20:58:41.292Z,99.90
2018-10-02T21:01:10.695Z,99.90
2018-10-02T21:03:39.902Z,99.90
2018-10-02T21:06:09.115Z,99.90
2018-10-02T21:08:38.266Z,99.90
2018-10-02T21:11:07.458Z,99.90
2018-10-02T21:13:36.749Z,99.90
2018-10-02T21:16:05.967Z,99.90
2018-10-02T21:18:35.202Z,99.90
2018-10-02T21:21:04.416Z,99.90
2018-10-02T21:23:33.600Z,99.90
2018-10-02T21:26:02.839Z,99.90
2018-10-02T21:28:32.012Z,99.90
2018-10-02T21:31:01.190Z,99.90
2018-10-02T21:33:30.385Z,99.90
2018-10-02T21:35:59.608Z,99.90
2018-10-02T21:38:28.792Z,99.90
2018-10-02T21:40:58.005Z,99.90
2018-10-02T21:43:27.202Z,99.90
2018-10-02T21:45:56.413Z,99.90
2018-10-02T21:48:25.686Z,99.90
2018-10-02T21:50:54.884Z,99.90
2018-10-02T21:53:24.087Z,99.90
2018-10-02T21:55:53.288Z,99.90
2018-10-02T21:58:22.568Z,99.90
2018-10-02T22:00:51.755Z,99.90
2018-10-02T22:03:20.939Z,99.90
2018-10-02T22:05:50.151Z,99.90
2018-10-02T22:08:19.323Z,99.90
2018-10-02T22:10:48.509Z,99.90
2018-10-02T22:13:17.712Z,99.90
2018-10-02T22:15:46.916Z,99.90
2018-10-02T22:18:16.147Z,99.90
2018-10-02T22:20:45.307Z,99.90
2018-10-02T22:23:14.510Z,99.90
2018-10-02T22:25:43.685Z,99.90
2018-10-02T22:28:12.895Z,99.90
2018-10-02T22:30:42.058Z,99.90
2018-10-02T22:33:11.310Z,99.90
2018-10-02T22:35:40.442Z,99.90
2018-10-02T22:38:09.622Z,99.90
2018-10-02T22:40:38.882Z,99.90
2018-10-02T22:43:08.090Z,99.90
2018-10-02T22:45:37.262Z,99.90
2018-10-02T22:48:06.601Z,99.90
2018-10-02T22:50:35.766Z,99.90
2018-10-02T22:53:11.923Z,99.90
2018-10-02T22:55:41.067Z,99.90
2018-10-02T22:58:10.262Z,99.90
2018-10-02T23:00:39.439Z,99.90
2018-10-02T23:03:08.603Z,99.90
2018-10-02T23:05:37.748Z,99.90
2018-10-02T23:08:06.919Z,99.90
2018-10-02T23:10:36.567Z,99.90
2018-10-02T23:13:05.732Z,99.90
2018-10-02T23:15:35.095Z,99.90
2018-10-02T23:18:04.314Z,99.90
2018-10-02T23:20:33.449Z,99.90
2018-10-02T23:23:02.606Z,99.90
2018-10-02T23:25:31.751Z,99.90
2018-10-02T23:28:00.922Z,99.90
2018-10-02T23:30:30.071Z,99.90
2018-10-02T23:32:59.386Z,99.90
2018-10-02T23:35:28.577Z,99.90
2018-10-02T23:37:57.760Z,99.90
2018-10-02T23:40:27.061Z,99.90
2018-10-02T23:42:56.375Z,99.90
2018-10-02T23:45:25.523Z,99.90
2018-10-02T23:47:54.688Z,99.90
2018-10-02T23:50:23.834Z,99.90
2018-10-02T23:52:53.007Z,99.90
2018-10-02T23:55:22.167Z,99.90
2018-10-02T23:57:51.446Z,99.90
